Latest Weather Observations for Yanakie

IDV60801

Issued at 1:02 pm EDT Monday 22 December 2014 (issued every 30 minutes, with the page automatically refreshed every 10 minutes)

About weather observations | Map of weather stations | Latest weather observations for VIC | Other Formats
Station Details ID: 085301 Name: YANAKIE Lat: -38.81 Lon: 146.19 Height: 13.3 m
Data from the previous 72 hours. | See also: Recent months at Yanakie
Date/Time
EDT
Temp
°C
App
Temp
°C
Dew
Point
Rel
Hum
%
Delta-T
°C
Wind Press
QNH
hPa
Press
MSL
hPa
Rain
since 9 am
mm
Dir
 
Spd
km/h
Gust
km/h
Spd
kts
Gust
kts
22/01:00pm 22.1 20.2 17.7 76 2.7 E 24 35 13 19 1012.7 1012.6 0.0
22/12:30pm 22.1 19.9 17.0 73 3.1 ENE 24 35 13 19 1012.9 1012.8 0.0
22/12:00pm 22.2 20.2 16.5 70 3.5 ENE 22 32 12 17 1013.3 1013.2 0.0
22/11:30am 22.8 21.7 16.4 67 3.9 E 17 26 9 14 1013.6 1013.5 0.0
22/11:00am 21.9 21.4 16.8 73 3.1 E 15 26 8 14 1013.8 1013.7 0.0
22/10:30am 20.1 19.1 16.5 80 2.2 ESE 17 24 9 13 1014.0 1013.9 0.0
22/10:00am 19.6 20.2 17.7 89 1.2 ESE 11 22 6 12 1013.9 1013.8 0.0
22/09:30am 18.2 17.7 17.0 93 0.7 ESE 15 24 8 13 1013.9 1013.8 0.0
22/09:00am 17.6 17.4 16.8 95 0.5 E 13 20 7 11 1013.9 1013.8 0.0
22/08:30am 17.0 16.7 16.4 96 0.4 E 13 19 7 10 1014.0 1013.9 0.0
22/08:00am 16.7 17.1 16.2 97 0.3 E 9 13 5 7 1013.9 1013.8 0.0
22/07:30am 16.8 17.2 16.3 97 0.3 E 9 17 5 9 1013.8 1013.7 0.0
22/07:00am 16.3 16.9 15.8 97 0.3 E 7 11 4 6 1013.4 1013.3 0.0
22/06:30am 16.0 17.1 15.5 97 0.3 E 4 6 2 3 1013.2 1013.1 0.0
22/06:00am 15.9 16.5 15.4 97 0.3 SE 6 9 3 5 1013.1 1013.0 0.0
22/05:30am 15.7 16.3 15.2 97 0.3 ESE 6 9 3 5 1012.9 1012.8 0.0
22/05:00am 14.9 15.5 14.3 96 0.3 ESE 4 6 2 3 1012.7 1012.6 0.0
22/04:30am 15.3 16.1 14.8 97 0.3 NE 4 9 2 5 1012.6 1012.5 0.0
22/04:00am 15.3 16.8 14.7 96 0.3 CALM 0 2 0 1 1012.6 1012.5 0.0
22/03:30am 13.7 13.9 13.1 96 0.3 ESE 4 6 2 3 1012.9 1012.8 0.0
22/03:00am 14.2 14.2 13.6 96 0.3 SSE 6 7 3 4 1013.0 1012.9 0.0
22/02:30am 14.7 15.9 13.9 95 0.4 CALM 0 0 0 0 1013.1 1013.0 0.0
22/02:00am 14.9 14.9 14.1 95 0.5 SSW 7 11 4 6 1013.2 1013.1 0.0
22/01:30am 15.9 16.2 15.1 95 0.5 SSW 7 13 4 7 1013.3 1013.2 0.0
22/01:00am 15.8 16.0 14.8 94 0.6 SW 7 11 4 6 1013.7 1013.6 0.0
22/12:30am 16.3 15.9 15.3 94 0.6 SSW 11 15 6 8 1013.8 1013.7 0.0
22/12:00am 16.3 16.3 15.2 93 0.6 SW 9 11 5 6 1013.9 1013.8 0.0
 
Date/Time
EDT
Temp
°C
App
Temp
°C
Dew
Point
Rel
Hum
%
Delta-T
°C
Wind Press
QNH
hPa
Press
MSL
hPa
Rain
since 9 am
mm
Dir
 
Spd
km/h
Gust
km/h
Spd
kts
Gust
kts
21/11:30pm 15.7 15.8 14.4 92 0.7 SW 7 9 4 5 1013.9 1013.8 0.0
21/11:00pm 15.5 15.4 14.0 91 0.8 SW 7 9 4 5 1013.9 1013.8 0.0
21/10:30pm 15.5 15.3 13.7 89 1.0 SSW 7 11 4 6 1014.1 1014.0 0.0
21/10:00pm 16.2 17.1 13.9 86 1.3 SE 2 4 1 2 1013.8 1013.7 0.0
21/09:30pm 17.9 18.3 15.3 85 1.5 E 7 9 4 5 1013.5 1013.4 0.0
21/09:00pm 18.4 19.1 15.6 84 1.6 ESE 6 9 3 5 1013.1 1013.0 0.0
21/08:30pm 19.1 19.6 15.6 80 2.1 ESE 7 13 4 7 1012.9 1012.8 0.0
21/08:00pm 20.6 21.0 16.2 76 2.6 ESE 9 13 5 7 1012.4 1012.3 0.0
21/07:30pm 21.2 21.3 16.4 74 2.9 E 11 15 6 8 1012.3 1012.2 0.0
21/07:00pm 21.3 21.2 16.0 72 3.2 ESE 11 15 6 8 1012.2 1012.1 0.0
21/06:30pm 22.3 22.6 16.1 68 3.7 E 9 17 5 9 1012.1 1012.0 0.0
21/06:00pm 23.1 22.7 16.2 65 4.2 ENE 13 20 7 11 1012.1 1012.0 0.0
21/05:30pm 22.3 21.4 15.9 67 3.9 ENE 15 20 8 11 1012.3 1012.2 0.0
21/05:00pm 23.9 23.3 16.7 64 4.4 ENE 15 20 8 11 1012.6 1012.5 0.0
21/04:30pm 24.0 23.7 16.5 63 4.6 ENE 13 17 7 9 1013.0 1012.9 0.0
21/04:00pm 24.0 23.9 17.0 65 4.3 ENE 13 17 7 9 1013.5 1013.4 0.0
21/03:30pm 23.9 23.9 17.2 66 4.1 ENE 13 17 7 9 1013.5 1013.4 0.0
21/03:00pm 24.3 24.1 17.5 66 4.2 ENE 15 20 8 11 1013.8 1013.7 0.0
21/02:30pm 24.2 24.1 17.0 64 4.4 ENE 13 20 7 11 1014.0 1013.9 0.0
21/02:00pm 24.3 24.4 16.6 62 4.7 NE 11 17 6 9 1014.2 1014.1 0.0
21/01:30pm 24.7 24.9 16.7 61 4.9 ENE 11 17 6 9 1014.6 1014.5 0.0
21/01:00pm 24.1 24.4 16.9 64 4.4 ENE 11 15 6 8 1014.7 1014.6 0.0
21/12:30pm 23.1 22.4 16.4 66 4.1 E 15 20 8 11 1014.7 1014.6 0.0
21/12:00pm 22.8 22.2 16.6 68 3.8 E 15 20 8 11 1014.8 1014.7 0.0
21/11:30am 21.7 20.9 16.0 70 3.4 ENE 15 22 8 12 1015.0 1014.9 0.0
21/11:00am 20.8 19.0 15.4 71 3.2 E 19 24 10 13 1015.0 1014.9 0.0
21/10:30am 20.4 19.4 15.6 74 2.9 ENE 15 20 8 11 1015.1 1015.0 0.0
21/10:00am 19.1 17.4 14.8 76 2.5 ENE 17 20 9 11 1015.4 1015.3 0.0
21/09:30am 18.1 16.6 15.4 84 1.6 ENE 17 24 9 13 1015.7 1015.6 0.0
21/09:00am 16.9 15.9 15.6 92 0.8 ENE 15 24 8 13 1015.6 1015.5 0.0
21/08:30am 16.1 15.8 15.5 96 0.3 NE 11 20 6 11 1015.3 1015.2 0.0
21/08:00am 15.0 14.7 14.5 97 0.3 NE 9 15 5 8 1015.5 1015.4 0.0
21/07:30am 14.8 15.8 14.3 97 0.3 ENE 2 2 1 1 1015.9 1015.8 0.0
21/07:00am 10.3 10.3 9.8 97 0.3 CALM 0 0 0 0 1016.0 1015.9 0.0
21/06:30am 8.8 8.4 8.4 97 0.2 CALM 0 0 0 0 1015.8 1015.7 0.0
21/06:00am 9.3 8.7 8.8 97 0.2 NE 2 4 1 2 1015.5 1015.4 0.0
21/05:30am 9.9 9.0 9.4 97 0.2 NNE 4 6 2 3 1015.1 1015.0 0.0
21/05:00am 9.3 8.6 8.7 96 0.3 N 2 4 1 2 1014.8 1014.7 0.0
21/04:30am 9.3 8.6 8.7 96 0.3 N 2 2 1 1 1014.7 1014.6 0.0
21/04:00am 9.3 7.9 8.7 96 0.3 N 6 7 3 4 1014.7 1014.6 0.0
21/03:30am 10.9 9.7 10.3 96 0.3 N 7 9 4 5 1015.3 1015.2 0.0
21/03:00am 10.5 10.1 9.7 95 0.4 N 2 4 1 2 1015.5 1015.4 0.0
21/02:30am 10.6 9.8 9.8 95 0.4 N 4 6 2 3 1015.9 1015.8 0.0
21/02:00am 10.8 10.1 10.0 95 0.4 N 4 7 2 4 1016.3 1016.2 0.0
21/01:30am 9.6 9.3 8.7 94 0.4 CALM 0 0 0 0 1016.5 1016.4 0.0
21/01:00am 10.8 10.1 9.9 94 0.5 WNW 4 6 2 3 1016.9 1016.9 0.0
21/12:30am 11.3 10.3 10.2 93 0.6 WNW 6 7 3 4 1017.1 1017.1 0.0
21/12:00am 11.1 10.4 9.9 92 0.6 WNW 4 6 2 3 1017.3 1017.3 0.0
 
Date/Time
EDT
Temp
°C
App
Temp
°C
Dew
Point
Rel
Hum
%
Delta-T
°C
Wind Press
QNH
hPa
Press
MSL
hPa
Rain
since 9 am
mm
Dir
 
Spd
km/h
Gust
km/h
Spd
kts
Gust
kts
20/11:30pm 11.4 10.7 10.1 92 0.7 WNW 4 6 2 3 1017.6 1017.6 0.0
20/11:00pm 11.4 10.7 10.0 91 0.7 NNW 4 4 2 2 1017.6 1017.6 0.0
20/10:30pm 12.5 12.0 10.9 90 0.8 NW 4 6 2 3 1017.8 1017.8 0.0
20/10:00pm 12.8 12.0 11.0 89 0.9 NW 6 7 3 4 1018.0 1018.0 0.0
20/09:30pm 14.4 14.0 12.4 88 1.1 W 6 9 3 5 1017.8 1017.8 0.0
20/09:00pm 14.5 13.5 12.4 87 1.1 WSW 9 13 5 7 1017.6 1017.6 0.0
20/08:30pm 15.0 13.6 12.1 83 1.6 SW 11 15 6 8 1017.5 1017.5 0.0
20/08:00pm 16.4 14.6 12.2 76 2.3 SW 13 19 7 10 1017.3 1017.3 0.0
20/07:30pm 17.3 14.9 12.6 74 2.6 SW 17 20 9 11 1017.1 1017.1 0.0
20/07:00pm 17.8 15.1 12.9 73 2.7 SW 19 24 10 13 1016.9 1016.9 0.0
20/06:30pm 18.7 16.1 13.3 71 3.1 SW 19 24 10 13 1016.9 1016.9 0.0
20/06:00pm 19.3 16.6 12.8 66 3.7 WSW 19 24 10 13 1016.7 1016.6 0.0
20/05:30pm 18.1 14.8 12.8 71 3.0 W 22 28 12 15 1016.9 1016.9 0.0
20/05:00pm 18.0 14.2 12.5 70 3.1 WSW 24 32 13 17 1017.1 1017.1 0.0
20/04:30pm 18.2 13.5 12.0 67 3.4 W 28 35 15 19 1017.2 1017.2 0.0
20/04:00pm 20.2 15.3 12.4 61 4.4 W 30 39 16 21 1017.3 1017.3 0.0
20/03:30pm 19.2 15.3 12.0 63 4.0 W 24 33 13 18 1017.6 1017.6 0.0
20/03:00pm 18.4 13.7 11.9 66 3.6 W 28 35 15 19 1017.9 1017.9 0.0
20/02:30pm 17.6 13.0 12.3 71 2.9 W 28 35 15 19 1018.1 1018.1 0.0
20/02:00pm 17.2 12.9 11.9 71 2.9 W 26 37 14 20 1018.1 1018.1 0.0
20/01:30pm 18.1 13.3 11.7 66 3.5 W 28 37 15 20 1018.1 1018.1 0.0
20/01:00pm 18.7 14.2 11.5 63 3.9 WSW 26 33 14 18 1018.1 1018.1 0.0
20/12:30pm 18.8 13.8 11.1 61 4.2 WSW 28 39 15 21 1018.2 1018.2 0.0
20/12:00pm 17.6 11.8 10.9 65 3.6 W 32 43 17 23 1018.3 1018.3 0.0
20/11:30am 17.9 14.8 12.1 69 3.2 W 20 30 11 16 1018.3 1018.3 0.0
20/11:00am 18.5 14.7 12.3 67 3.4 W 24 32 13 17 1018.3 1018.3 0.0
20/10:30am 17.9 14.5 12.4 70 3.1 W 22 37 12 20 1018.1 1018.1 0.0
20/10:00am 16.4 13.9 12.2 76 2.3 NW 17 22 9 12 1018.1 1018.1 0.0
20/09:30am 16.1 13.8 11.9 76 2.3 WNW 15 19 8 10 1018.1 1018.1 0.0
20/09:00am 15.4 12.4 10.8 74 2.4 WNW 17 26 9 14 1018.1 1018.1 0.0
20/08:30am 15.1 12.6 11.1 77 2.1 NW 15 20 8 11 1017.8 1017.8 0.0
20/08:00am 14.3 11.8 10.9 80 1.8 NW 15 19 8 10 1017.6 1017.6 0.0
20/07:30am 13.8 12.1 11.3 85 1.3 NNW 11 17 6 9 1017.3 1017.3 0.0
20/07:00am 12.4 10.4 10.3 87 1.1 NW 11 15 6 8 1017.4 1017.4 0.0
20/06:30am 12.0 9.6 10.2 89 0.9 NW 13 19 7 10 1017.1 1017.1 0.0
20/06:00am 11.2 9.5 9.8 91 0.7 NW 9 13 5 7 1017.0 1017.0 0.0
20/05:30am 10.3 8.4 8.9 91 0.7 NW 9 13 5 7 1017.0 1017.0 0.0
20/05:00am 9.4 7.6 8.0 91 0.7 NW 7 11 4 6 1016.9 1016.9 0.0
20/04:30am 9.5 7.4 8.1 91 0.7 NW 9 9 5 5 1016.7 1016.6 0.0
20/04:00am 9.3 7.1 7.9 91 0.7 NW 9 9 5 5 1016.9 1016.9 0.0
20/03:30am 9.2 6.9 7.6 90 0.8 NW 9 11 5 6 1017.0 1017.0 0.0
20/03:00am 9.3 7.1 7.7 90 0.8 NW 9 11 5 6 1017.1 1017.1 0.0
20/02:30am 9.3 7.0 7.6 89 0.8 NW 9 11 5 6 1017.3 1017.3 0.0
20/02:00am 9.8 7.2 7.9 88 0.9 NW 11 13 6 7 1017.4 1017.4 0.0
20/01:30am 10.1 7.9 8.0 87 1.0 NW 9 11 5 6 1017.7 1017.7 0.0
20/01:00am 10.9 8.9 8.7 86 1.1 WNW 9 13 5 7 1017.9 1017.9 0.0
20/12:30am 10.9 9.1 8.1 83 1.4 WNW 7 9 4 5 1018.2 1018.2 0.0
20/12:00am 12.6 9.6 9.4 81 1.6 W 15 19 8 10 1018.5 1018.5 0.0
 
Date/Time
EDT
Temp
°C
App
Temp
°C
Dew
Point
Rel
Hum
%
Delta-T
°C
Wind Press
QNH
hPa
Press
MSL
hPa
Rain
since 9 am
mm
Dir
 
Spd
km/h
Gust
km/h
Spd
kts
Gust
kts
19/11:30pm 12.5 9.8 8.8 78 1.8 W 13 19 7 10 1018.8 1018.8 0.0
19/11:00pm 13.4 9.6 8.9 74 2.3 WSW 19 28 10 15 1018.9 1018.9 0.0
19/10:30pm 13.5 9.6 8.8 73 2.4 WSW 19 24 10 13 1019.0 1019.0 0.0
19/10:00pm 13.8 10.1 9.3 74 2.3 WSW 19 28 10 15 1019.0 1019.0 0.0
19/09:30pm 12.9 10.1 8.4 74 2.2 W 13 19 7 10 1018.9 1018.9 0.0
19/09:00pm 13.7 9.5 8.3 70 2.7 WSW 20 24 11 13 1018.8 1018.8 0.0
19/08:30pm 13.9 10.0 8.7 71 2.6 WSW 19 24 10 13 1018.7 1018.7 0.0
19/08:00pm 14.9 10.3 8.2 64 3.4 WSW 22 30 12 16 1018.6 1018.6 0.0
19/07:30pm 15.6 10.6 7.9 60 3.9 WSW 24 32 13 17 1018.3 1018.3 0.0
19/07:00pm 16.6 11.4 8.8 60 4.0 WSW 26 32 14 17 1018.0 1018.0 0.0
19/06:30pm 17.0 11.6 7.9 55 4.6 WSW 26 33 14 18 1017.7 1017.7 0.0
19/06:00pm 17.2 11.4 7.8 54 4.7 W 28 35 15 19 1017.4 1017.4 0.0
19/05:30pm 18.0 12.7 8.6 54 4.9 WSW 26 37 14 20 1017.3 1017.3 0.0
19/05:00pm 18.0 12.4 8.8 55 4.8 W 28 37 15 20 1017.2 1017.2 0.0
19/04:30pm 19.1 14.2 9.9 55 4.9 WSW 26 35 14 19 1017.2 1017.2 0.0
19/04:00pm 18.5 13.5 9.6 56 4.7 SW 26 37 14 20 1017.2 1017.2 0.0
19/03:30pm 17.5 12.7 8.9 57 4.5 SW 24 35 13 19 1017.2 1017.2 0.0
19/03:00pm 18.5 13.1 9.6 56 4.7 WSW 28 37 15 20 1017.1 1017.1 0.0
19/02:30pm 18.8 13.5 9.8 56 4.8 SW 28 37 15 20 1017.0 1017.0 0.0
19/02:00pm 18.8 13.5 9.8 56 4.8 SW 28 35 15 19 1016.9 1016.9 0.0
19/01:30pm 18.5 13.3 9.0 54 5.0 WSW 26 35 14 19 1017.0 1017.0 0.0

Other Formats:

Comma delimited format used in spreadsheet applications
http://www.bom.gov.au/fwo/IDV60801/IDV60801.94911.axf

JavaScript Object Notation format (JSON) in row-major order
http://www.bom.gov.au/fwo/IDV60801/IDV60801.94911.json